sensor_id;sensor_type;location;lat;lon;timestamp;temperature;humidity
21861;DHT22;11095;48.066;8.540;2023-02-15T00:01:18;-1.70;99.90
21861;DHT22;11095;48.066;8.540;2023-02-15T00:03:44;-1.70;99.90
21861;DHT22;11095;48.066;8.540;2023-02-15T00:06:09;-1.70;99.90
21861;DHT22;11095;48.066;8.540;2023-02-15T00:08:35;-1.70;99.90
21861;DHT22;11095;48.066;8.540;2023-02-15T00:11:05;-1.70;99.90
21861;DHT22;11095;48.066;8.540;2023-02-15T00:13:31;-1.80;99.90
21861;DHT22;11095;48.066;8.540;2023-02-15T00:16:05;-1.80;99.90
21861;DHT22;11095;48.066;8.540;2023-02-15T00:18:30;-1.80;99.90
21861;DHT22;11095;48.066;8.540;2023-02-15T00:20:56;-1.80;99.90
21861;DHT22;11095;48.066;8.540;2023-02-15T00:23:22;-1.90;99.90
21861;DHT22;11095;48.066;8.540;2023-02-15T00:25:48;-1.80;99.90
21861;DHT22;11095;48.066;8.540;2023-02-15T00:28:13;-1.80;99.90
21861;DHT22;11095;48.066;8.540;2023-02-15T00:30:39;-1.80;99.90
21861;DHT22;11095;48.066;8.540;2023-02-15T00:33:04;-1.80;99.90
21861;DHT22;11095;48.066;8.540;2023-02-15T00:35:30;-1.80;99.90
21861;DHT22;11095;48.066;8.540;2023-02-15T00:37:56;-1.90;99.90
21861;DHT22;11095;48.066;8.540;2023-02-15T00:40:21;-1.90;99.90
21861;DHT22;11095;48.066;8.540;2023-02-15T00:42:47;-1.90;99.90
21861;DHT22;11095;48.066;8.540;2023-02-15T00:45:13;-1.90;99.90
21861;DHT22;11095;48.066;8.540;2023-02-15T00:47:38;-1.90;99.90
21861;DHT22;11095;48.066;8.540;2023-02-15T00:50:04;-1.90;99.90
21861;DHT22;11095;48.066;8.540;2023-02-15T00:52:30;-1.90;99.90
21861;DHT22;11095;48.066;8.540;2023-02-15T00:54:56;-1.90;99.90
21861;DHT22;11095;48.066;8.540;2023-02-15T00:57:22;-1.90;99.90
21861;DHT22;11095;48.066;8.540;2023-02-15T00:59:47;-1.90;99.90
21861;DHT22;11095;48.066;8.540;2023-02-15T01:02:13;-2.00;99.90
21861;DHT22;11095;48.066;8.540;2023-02-15T01:04:39;-2.00;99.90
21861;DHT22;11095;48.066;8.540;2023-02-15T01:07:04;-2.00;99.90
21861;DHT22;11095;48.066;8.540;2023-02-15T01:09:30;-2.10;99.90
21861;DHT22;11095;48.066;8.540;2023-02-15T01:11:56;-2.10;99.90
21861;DHT22;11095;48.066;8.540;2023-02-15T01:14:21;-2.10;99.90
21861;DHT22;11095;48.066;8.540;2023-02-15T01:16:47;-2.10;99.90
21861;DHT22;11095;48.066;8.540;2023-02-15T01:19:13;-2.20;99.90
21861;DHT22;11095;48.066;8.540;2023-02-15T01:21:38;-2.20;99.90
21861;DHT22;11095;48.066;8.540;2023-02-15T01:24:11;-2.20;99.90
21861;DHT22;11095;48.066;8.540;2023-02-15T01:26:37;-2.30;99.90
21861;DHT22;11095;48.066;8.540;2023-02-15T01:29:02;-2.30;99.90
21861;DHT22;11095;48.066;8.540;2023-02-15T01:31:28;-2.40;99.90
21861;DHT22;11095;48.066;8.540;2023-02-15T01:33:54;-2.40;99.90
21861;DHT22;11095;48.066;8.540;2023-02-15T01:36:19;-2.40;99.90
21861;DHT22;11095;48.066;8.540;2023-02-15T01:38:45;-2.40;99.90
21861;DHT22;11095;48.066;8.540;2023-02-15T01:41:11;-2.40;99.90
21861;DHT22;11095;48.066;8.540;2023-02-15T01:43:52;-2.40;99.90
21861;DHT22;11095;48.066;8.540;2023-02-15T01:46:22;-2.40;99.90
21861;DHT22;11095;48.066;8.540;2023-02-15T01:48:52;-2.40;99.90
21861;DHT22;11095;48.066;8.540;2023-02-15T01:51:21;-2.30;99.90
21861;DHT22;11095;48.066;8.540;2023-02-15T01:53:50;-2.30;99.90
21861;DHT22;11095;48.066;8.540;2023-02-15T01:56:23;-2.30;99.90
21861;DHT22;11095;48.066;8.540;2023-02-15T01:58:51;-2.30;99.90
21861;DHT22;11095;48.066;8.540;2023-02-15T02:01:19;-2.30;99.90
21861;DHT22;11095;48.066;8.540;2023-02-15T02:06:30;-2.30;99.90
21861;DHT22;11095;48.066;8.540;2023-02-15T02:08:56;-2.30;99.90
21861;DHT22;11095;48.066;8.540;2023-02-15T02:11:22;-2.30;99.90
21861;DHT22;11095;48.066;8.540;2023-02-15T02:13:48;-2.30;99.90
21861;DHT22;11095;48.066;8.540;2023-02-15T02:16:22;-2.30;99.90
21861;DHT22;11095;48.066;8.540;2023-02-15T02:27:34;-2.50;99.90
21861;DHT22;11095;48.066;8.540;2023-02-15T02:30:27;-2.50;99.90
21861;DHT22;11095;48.066;8.540;2023-02-15T02:36:08;-2.60;99.90
21861;DHT22;11095;48.066;8.540;2023-02-15T02:42:05;-2.70;99.90
21861;DHT22;11095;48.066;8.540;2023-02-15T02:44:34;-2.70;99.90
21861;DHT22;11095;48.066;8.540;2023-02-15T02:47:12;-2.70;99.90
21861;DHT22;11095;48.066;8.540;2023-02-15T02:49:41;-2.70;99.90
21861;DHT22;11095;48.066;8.540;2023-02-15T02:52:34;-2.70;99.90
21861;DHT22;11095;48.066;8.540;2023-02-15T02:55:02;-2.70;99.90
21861;DHT22;11095;48.066;8.540;2023-02-15T02:57:29;-2.70;99.90
21861;DHT22;11095;48.066;8.540;2023-02-15T02:59:58;-2.70;99.90
21861;DHT22;11095;48.066;8.540;2023-02-15T03:02:30;-2.70;99.90
21861;DHT22;11095;48.066;8.540;2023-02-15T03:05:03;-2.70;99.90
21861;DHT22;11095;48.066;8.540;2023-02-15T03:07:32;-2.70;99.90
21861;DHT22;11095;48.066;8.540;2023-02-15T03:10:00;-2.80;99.90
21861;DHT22;11095;48.066;8.540;2023-02-15T03:12:32;-2.80;99.90
21861;DHT22;11095;48.066;8.540;2023-02-15T03:15:06;-2.80;99.90
21861;DHT22;11095;48.066;8.540;2023-02-15T03:17:39;-2.80;99.90
21861;DHT22;11095;48.066;8.540;2023-02-15T03:20:14;-2.80;99.90
21861;DHT22;11095;48.066;8.540;2023-02-15T03:22:48;-2.80;99.90
21861;DHT22;11095;48.066;8.540;2023-02-15T03:25:18;-2.80;99.90
21861;DHT22;11095;48.066;8.540;2023-02-15T03:27:48;-2.70;99.90
21861;DHT22;11095;48.066;8.540;2023-02-15T03:30:15;-2.80;99.90
21861;DHT22;11095;48.066;8.540;2023-02-15T03:32:43;-2.80;99.90
21861;DHT22;11095;48.066;8.540;2023-02-15T03:35:10;-2.80;99.90
21861;DHT22;11095;48.066;8.540;2023-02-15T03:37:43;-2.80;99.90
21861;DHT22;11095;48.066;8.540;2023-02-15T03:40:42;-2.80;99.90
21861;DHT22;11095;48.066;8.540;2023-02-15T03:46:26;-2.80;99.90
21861;DHT22;11095;48.066;8.540;2023-02-15T03:48:57;-2.80;99.90
21861;DHT22;11095;48.066;8.540;2023-02-15T03:51:28;-2.80;99.90
21861;DHT22;11095;48.066;8.540;2023-02-15T03:54:30;-2.80;99.90
21861;DHT22;11095;48.066;8.540;2023-02-15T03:59:57;-2.80;99.90
21861;DHT22;11095;48.066;8.540;2023-02-15T04:05:40;-2.90;99.90
21861;DHT22;11095;48.066;8.540;2023-02-15T04:08:07;-2.90;99.90
21861;DHT22;11095;48.066;8.540;2023-02-15T04:10:33;-2.90;99.90
21861;DHT22;11095;48.066;8.540;2023-02-15T04:13:24;-2.90;99.90
21861;DHT22;11095;48.066;8.540;2023-02-15T04:15:50;-2.90;99.90
21861;DHT22;11095;48.066;8.540;2023-02-15T04:18:38;-2.90;99.90
21861;DHT22;11095;48.066;8.540;2023-02-15T04:21:24;-2.90;99.90
21861;DHT22;11095;48.066;8.540;2023-02-15T04:24:08;-2.90;99.90
21861;DHT22;11095;48.066;8.540;2023-02-15T04:26:54;-2.90;99.90
21861;DHT22;11095;48.066;8.540;2023-02-15T04:29:20;-2.90;99.90
21861;DHT22;11095;48.066;8.540;2023-02-15T04:31:46;-2.90;99.90
21861;DHT22;11095;48.066;8.540;2023-02-15T04:34:13;-2.90;99.90
21861;DHT22;11095;48.066;8.540;2023-02-15T04:36:39;-3.00;99.90
21861;DHT22;11095;48.066;8.540;2023-02-15T04:39:05;-3.00;99.90
21861;DHT22;11095;48.066;8.540;2023-02-15T04:41:32;-2.90;99.90
21861;DHT22;11095;48.066;8.540;2023-02-15T04:43:58;-2.90;99.90
21861;DHT22;11095;48.066;8.540;2023-02-15T04:46:25;-2.90;99.90
21861;DHT22;11095;48.066;8.540;2023-02-15T04:48:50;-2.90;99.90
21861;DHT22;11095;48.066;8.540;2023-02-15T04:51:16;-2.90;99.90
21861;DHT22;11095;48.066;8.540;2023-02-15T04:53:41;-2.90;99.90
21861;DHT22;11095;48.066;8.540;2023-02-15T04:56:07;-2.90;99.90
21861;DHT22;11095;48.066;8.540;2023-02-15T04:58:33;-2.90;99.90
21861;DHT22;11095;48.066;8.540;2023-02-15T05:00:58;-2.80;99.90
21861;DHT22;11095;48.066;8.540;2023-02-15T05:03:24;-2.80;99.90
21861;DHT22;11095;48.066;8.540;2023-02-15T05:05:50;-2.80;99.90
21861;DHT22;11095;48.066;8.540;2023-02-15T05:08:16;-2.90;99.90
21861;DHT22;11095;48.066;8.540;2023-02-15T05:10:42;-2.90;99.90
21861;DHT22;11095;48.066;8.540;2023-02-15T05:13:07;-2.90;99.90
21861;DHT22;11095;48.066;8.540;2023-02-15T05:15:33;-2.90;99.90
21861;DHT22;11095;48.066;8.540;2023-02-15T05:17:59;-2.90;99.90
21861;DHT22;11095;48.066;8.540;2023-02-15T05:20:25;-3.00;99.90
21861;DHT22;11095;48.066;8.540;2023-02-15T05:22:53;-2.90;99.90
21861;DHT22;11095;48.066;8.540;2023-02-15T05:25:20;-3.00;99.90
21861;DHT22;11095;48.066;8.540;2023-02-15T05:28:04;-2.90;99.90
21861;DHT22;11095;48.066;8.540;2023-02-15T05:30:49;-2.90;99.90
21861;DHT22;11095;48.066;8.540;2023-02-15T05:33:16;-2.90;99.90
21861;DHT22;11095;48.066;8.540;2023-02-15T05:35:42;-2.90;99.90
21861;DHT22;11095;48.066;8.540;2023-02-15T05:38:07;-2.90;99.90
21861;DHT22;11095;48.066;8.540;2023-02-15T05:40:33;-2.90;99.90
21861;DHT22;11095;48.066;8.540;2023-02-15T05:42:59;-2.90;99.90
21861;DHT22;11095;48.066;8.540;2023-02-15T05:45:25;-2.90;99.90
21861;DHT22;11095;48.066;8.540;2023-02-15T05:47:50;-2.90;99.90
21861;DHT22;11095;48.066;8.540;2023-02-15T05:50:16;-2.90;99.90
21861;DHT22;11095;48.066;8.540;2023-02-15T05:52:42;-2.80;99.90
21861;DHT22;11095;48.066;8.540;2023-02-15T05:55:08;-2.80;99.90
21861;DHT22;11095;48.066;8.540;2023-02-15T05:57:37;-2.90;99.90
21861;DHT22;11095;48.066;8.540;2023-02-15T06:00:04;-2.90;99.90
21861;DHT22;11095;48.066;8.540;2023-02-15T06:02:33;-2.90;99.90
21861;DHT22;11095;48.066;8.540;2023-02-15T06:04:59;-3.00;99.90
21861;DHT22;11095;48.066;8.540;2023-02-15T06:07:25;-3.00;99.90
21861;DHT22;11095;48.066;8.540;2023-02-15T06:09:50;-3.00;99.90
21861;DHT22;11095;48.066;8.540;2023-02-15T06:12:16;-3.00;99.90
21861;DHT22;11095;48.066;8.540;2023-02-15T06:14:42;-3.00;99.90
21861;DHT22;11095;48.066;8.540;2023-02-15T06:17:07;-3.00;99.90
21861;DHT22;11095;48.066;8.540;2023-02-15T06:19:33;-3.00;99.90
21861;DHT22;11095;48.066;8.540;2023-02-15T06:21:58;-2.90;99.90
21861;DHT22;11095;48.066;8.540;2023-02-15T06:24:24;-2.90;99.90
21861;DHT22;11095;48.066;8.540;2023-02-15T06:26:50;-2.90;99.90
21861;DHT22;11095;48.066;8.540;2023-02-15T06:29:16;-2.90;99.90
21861;DHT22;11095;48.066;8.540;2023-02-15T06:31:41;-2.90;99.90
21861;DHT22;11095;48.066;8.540;2023-02-15T06:34:07;-2.90;99.90
21861;DHT22;11095;48.066;8.540;2023-02-15T06:36:32;-2.90;99.90
21861;DHT22;11095;48.066;8.540;2023-02-15T06:38:58;-2.90;99.90
21861;DHT22;11095;48.066;8.540;2023-02-15T06:41:24;-2.90;99.90
21861;DHT22;11095;48.066;8.540;2023-02-15T06:43:50;-2.80;99.90
21861;DHT22;11095;48.066;8.540;2023-02-15T06:46:15;-2.70;99.90
21861;DHT22;11095;48.066;8.540;2023-02-15T06:48:41;-2.10;99.90
21861;DHT22;11095;48.066;8.540;2023-02-15T06:51:07;-1.30;99.90
21861;DHT22;11095;48.066;8.540;2023-02-15T06:53:32;-0.40;99.90
21861;DHT22;11095;48.066;8.540;2023-02-15T06:56:06;0.60;99.90
21861;DHT22;11095;48.066;8.540;2023-02-15T06:58:35;1.60;99.90
21861;DHT22;11095;48.066;8.540;2023-02-15T07:01:00;2.70;99.90
21861;DHT22;11095;48.066;8.540;2023-02-15T07:03:26;3.70;99.90
21861;DHT22;11095;48.066;8.540;2023-02-15T07:05:56;4.60;99.90
21861;DHT22;11095;48.066;8.540;2023-02-15T07:08:23;5.50;99.90
21861;DHT22;11095;48.066;8.540;2023-02-15T07:10:50;6.40;99.90
21861;DHT22;11095;48.066;8.540;2023-02-15T07:13:16;7.10;99.90
21861;DHT22;11095;48.066;8.540;2023-02-15T07:15:42;7.80;99.90
21861;DHT22;11095;48.066;8.540;2023-02-15T07:18:08;8.60;99.90
21861;DHT22;11095;48.066;8.540;2023-02-15T07:20:34;9.50;99.90
21861;DHT22;11095;48.066;8.540;2023-02-15T07:23:01;10.40;99.90
21861;DHT22;11095;48.066;8.540;2023-02-15T07:25:27;11.20;99.90
21861;DHT22;11095;48.066;8.540;2023-02-15T07:28:00;11.70;99.90
21861;DHT22;11095;48.066;8.540;2023-02-15T07:30:27;12.20;99.90
21861;DHT22;11095;48.066;8.540;2023-02-15T07:33:02;12.80;99.90
21861;DHT22;11095;48.066;8.540;2023-02-15T07:35:58;13.50;99.90
21861;DHT22;11095;48.066;8.540;2023-02-15T07:38:25;14.30;99.90
21861;DHT22;11095;48.066;8.540;2023-02-15T07:40:51;14.90;98.30
21861;DHT22;11095;48.066;8.540;2023-02-15T07:43:17;15.40;96.20
21861;DHT22;11095;48.066;8.540;2023-02-15T07:45:43;15.80;95.10
21861;DHT22;11095;48.066;8.540;2023-02-15T07:48:09;16.10;93.30
21861;DHT22;11095;48.066;8.540;2023-02-15T07:50:34;16.40;91.70
21861;DHT22;11095;48.066;8.540;2023-02-15T07:53:03;16.70;91.20
21861;DHT22;11095;48.066;8.540;2023-02-15T07:55:29;17.00;88.60
21861;DHT22;11095;48.066;8.540;2023-02-15T07:57:55;17.20;87.20
21861;DHT22;11095;48.066;8.540;2023-02-15T08:00:22;17.50;85.30
21861;DHT22;11095;48.066;8.540;2023-02-15T08:02:55;17.60;83.10
21861;DHT22;11095;48.066;8.540;2023-02-15T08:05:47;17.60;82.40
21861;DHT22;11095;48.066;8.540;2023-02-15T08:08:12;17.70;80.50
21861;DHT22;11095;48.066;8.540;2023-02-15T08:16:52;17.70;79.60
21861;DHT22;11095;48.066;8.540;2023-02-15T08:21:50;18.00;76.90
21861;DHT22;11095;48.066;8.540;2023-02-15T08:24:18;17.90;76.00
21861;DHT22;11095;48.066;8.540;2023-02-15T08:26:44;17.70;76.70
21861;DHT22;11095;48.066;8.540;2023-02-15T08:29:12;17.60;76.90
21861;DHT22;11095;48.066;8.540;2023-02-15T08:31:38;17.60;76.20
21861;DHT22;11095;48.066;8.540;2023-02-15T08:34:06;17.40;76.20
21861;DHT22;11095;48.066;8.540;2023-02-15T08:36:33;17.40;77.40
21861;DHT22;11095;48.066;8.540;2023-02-15T08:38:59;17.60;76.90
21861;DHT22;11095;48.066;8.540;2023-02-15T08:41:36;17.90;76.50
21861;DHT22;11095;48.066;8.540;2023-02-15T08:44:05;18.00;76.20
21861;DHT22;11095;48.066;8.540;2023-02-15T08:46:32;18.10;76.60
21861;DHT22;11095;48.066;8.540;2023-02-15T08:48:59;18.20;75.70
21861;DHT22;11095;48.066;8.540;2023-02-15T08:51:27;17.70;76.80
21861;DHT22;11095;48.066;8.540;2023-02-15T08:53:56;17.60;77.80
21861;DHT22;11095;48.066;8.540;2023-02-15T08:56:27;17.50;78.20
21861;DHT22;11095;48.066;8.540;2023-02-15T08:58:54;17.50;78.90
21861;DHT22;11095;48.066;8.540;2023-02-15T09:01:25;17.70;79.00
21861;DHT22;11095;48.066;8.540;2023-02-15T09:03:55;18.00;79.20
21861;DHT22;11095;48.066;8.540;2023-02-15T09:06:22;18.00;78.50
21861;DHT22;11095;48.066;8.540;2023-02-15T09:08:49;17.70;78.70
21861;DHT22;11095;48.066;8.540;2023-02-15T09:11:18;17.30;80.10
21861;DHT22;11095;48.066;8.540;2023-02-15T09:13:48;17.10;81.10
21861;DHT22;11095;48.066;8.540;2023-02-15T09:16:14;17.00;82.20
21861;DHT22;11095;48.066;8.540;2023-02-15T09:18:42;16.60;83.10
21861;DHT22;11095;48.066;8.540;2023-02-15T09:21:17;16.40;83.60
21861;DHT22;11095;48.066;8.540;2023-02-15T09:23:45;16.20;85.30
21861;DHT22;11095;48.066;8.540;2023-02-15T09:26:13;16.40;85.80
21861;DHT22;11095;48.066;8.540;2023-02-15T09:28:40;16.40;85.80
21861;DHT22;11095;48.066;8.540;2023-02-15T09:31:12;16.40;86.10
21861;DHT22;11095;48.066;8.540;2023-02-15T09:33:40;16.50;86.20
21861;DHT22;11095;48.066;8.540;2023-02-15T09:36:17;16.50;86.20
21861;DHT22;11095;48.066;8.540;2023-02-15T09:38:44;16.40;87.00
21861;DHT22;11095;48.066;8.540;2023-02-15T09:50:12;15.40;90.60
21861;DHT22;11095;48.066;8.540;2023-02-15T10:09:28;15.20;91.90
21861;DHT22;11095;48.066;8.540;2023-02-15T10:28:23;14.80;92.40
21861;DHT22;11095;48.066;8.540;2023-02-15T10:30:56;14.70;92.80
21861;DHT22;11095;48.066;8.540;2023-02-15T10:33:41;14.70;92.90
21861;DHT22;11095;48.066;8.540;2023-02-15T10:36:12;14.90;93.00
21861;DHT22;11095;48.066;8.540;2023-02-15T10:47:25;15.60;92.70
21861;DHT22;11095;48.066;8.540;2023-02-15T11:04:30;17.90;90.70
21861;DHT22;11095;48.066;8.540;2023-02-15T11:07:04;18.30;89.90
21861;DHT22;11095;48.066;8.540;2023-02-15T11:09:40;17.80;90.40
21861;DHT22;11095;48.066;8.540;2023-02-15T11:12:12;16.60;91.50
21861;DHT22;11095;48.066;8.540;2023-02-15T11:15:00;15.60;92.40
21861;DHT22;11095;48.066;8.540;2023-02-15T11:17:35;14.60;93.50
21861;DHT22;11095;48.066;8.540;2023-02-15T11:22:40;13.60;95.60
21861;DHT22;11095;48.066;8.540;2023-02-15T11:25:18;13.30;96.50
21861;DHT22;11095;48.066;8.540;2023-02-15T11:27:46;13.00;97.20
21861;DHT22;11095;48.066;8.540;2023-02-15T11:30:17;12.70;97.90
21861;DHT22;11095;48.066;8.540;2023-02-15T11:32:50;12.50;98.40
21861;DHT22;11095;48.066;8.540;2023-02-15T11:35:35;12.40;99.00
21861;DHT22;11095;48.066;8.540;2023-02-15T11:38:15;12.40;99.70
21861;DHT22;11095;48.066;8.540;2023-02-15T11:40:57;12.40;99.70
21861;DHT22;11095;48.066;8.540;2023-02-15T11:45:59;12.50;99.40
21861;DHT22;11095;48.066;8.540;2023-02-15T11:48:25;12.50;99.60
21861;DHT22;11095;48.066;8.540;2023-02-15T11:50:51;12.50;99.60
21861;DHT22;11095;48.066;8.540;2023-02-15T11:53:22;12.60;99.90
21861;DHT22;11095;48.066;8.540;2023-02-15T11:55:53;12.70;99.90
21861;DHT22;11095;48.066;8.540;2023-02-15T11:58:35;12.70;99.90
21861;DHT22;11095;48.066;8.540;2023-02-15T12:01:35;12.70;99.70
21861;DHT22;11095;48.066;8.540;2023-02-15T12:04:28;12.70;99.60
21861;DHT22;11095;48.066;8.540;2023-02-15T12:09:46;12.80;99.60
21861;DHT22;11095;48.066;8.540;2023-02-15T12:12:31;12.90;99.80
21861;DHT22;11095;48.066;8.540;2023-02-15T12:14:59;12.90;99.80
21861;DHT22;11095;48.066;8.540;2023-02-15T12:17:27;12.90;99.70
21861;DHT22;11095;48.066;8.540;2023-02-15T12:22:39;13.10;99.50
21861;DHT22;11095;48.066;8.540;2023-02-15T12:25:36;13.10;99.50
21861;DHT22;11095;48.066;8.540;2023-02-15T12:28:05;13.20;99.80
21861;DHT22;11095;48.066;8.540;2023-02-15T12:30:42;13.20;99.90
21861;DHT22;11095;48.066;8.540;2023-02-15T12:33:41;13.30;99.60
21861;DHT22;11095;48.066;8.540;2023-02-15T12:36:29;13.30;99.20
21861;DHT22;11095;48.066;8.540;2023-02-15T12:39:25;13.40;99.40
21861;DHT22;11095;48.066;8.540;2023-02-15T12:44:32;13.50;99.40
21861;DHT22;11095;48.066;8.540;2023-02-15T12:47:06;13.60;99.10
21861;DHT22;11095;48.066;8.540;2023-02-15T12:49:43;13.70;98.60
21861;DHT22;11095;48.066;8.540;2023-02-15T12:54:46;13.90;97.50
21861;DHT22;11095;48.066;8.540;2023-02-15T12:57:22;13.90;95.50
21861;DHT22;11095;48.066;8.540;2023-02-15T12:59:49;14.10;94.20
21861;DHT22;11095;48.066;8.540;2023-02-15T13:02:23;14.10;92.20
21861;DHT22;11095;48.066;8.540;2023-02-15T13:04:49;14.30;91.40
21861;DHT22;11095;48.066;8.540;2023-02-15T13:07:15;14.40;90.10
21861;DHT22;11095;48.066;8.540;2023-02-15T13:09:41;14.50;87.70
21861;DHT22;11095;48.066;8.540;2023-02-15T13:12:22;14.50;86.90
21861;DHT22;11095;48.066;8.540;2023-02-15T13:14:51;14.50;87.20
21861;DHT22;11095;48.066;8.540;2023-02-15T13:17:20;14.50;86.00
21861;DHT22;11095;48.066;8.540;2023-02-15T13:19:52;14.60;86.90
21861;DHT22;11095;48.066;8.540;2023-02-15T13:22:30;14.70;87.10
21861;DHT22;11095;48.066;8.540;2023-02-15T13:25:04;14.70;87.50
21861;DHT22;11095;48.066;8.540;2023-02-15T13:27:41;14.70;85.20
21861;DHT22;11095;48.066;8.540;2023-02-15T13:30:35;14.70;83.80
21861;DHT22;11095;48.066;8.540;2023-02-15T13:33:46;14.70;84.20
21861;DHT22;11095;48.066;8.540;2023-02-15T13:40:59;14.70;82.00
21861;DHT22;11095;48.066;8.540;2023-02-15T13:43:35;14.70;82.20
21861;DHT22;11095;48.066;8.540;2023-02-15T13:46:19;14.80;82.50
21861;DHT22;11095;48.066;8.540;2023-02-15T13:49:13;14.90;82.10
21861;DHT22;11095;48.066;8.540;2023-02-15T14:00:35;15.10;79.90
21861;DHT22;11095;48.066;8.540;2023-02-15T14:25:20;15.60;77.80
21861;DHT22;11095;48.066;8.540;2023-02-15T14:30:48;15.70;78.20
21861;DHT22;11095;48.066;8.540;2023-02-15T14:35:40;15.80;78.10
21861;DHT22;11095;48.066;8.540;2023-02-15T14:49:09;15.60;76.30
21861;DHT22;11095;48.066;8.540;2023-02-15T14:56:41;15.70;77.70
21861;DHT22;11095;48.066;8.540;2023-02-15T14:59:19;15.80;80.40
21861;DHT22;11095;48.066;8.540;2023-02-15T15:01:57;15.80;82.00
21861;DHT22;11095;48.066;8.540;2023-02-15T15:04:31;15.80;83.10
21861;DHT22;11095;48.066;8.540;2023-02-15T15:09:35;15.70;84.80
21861;DHT22;11095;48.066;8.540;2023-02-15T15:14:54;15.60;85.70
21861;DHT22;11095;48.066;8.540;2023-02-15T15:22:38;15.30;86.70
21861;DHT22;11095;48.066;8.540;2023-02-15T15:28:01;15.20;86.30
21861;DHT22;11095;48.066;8.540;2023-02-15T15:32:59;15.10;86.60
21861;DHT22;11095;48.066;8.540;2023-02-15T15:49:41;14.50;85.60
21861;DHT22;11095;48.066;8.540;2023-02-15T15:52:18;14.40;85.70
21861;DHT22;11095;48.066;8.540;2023-02-15T15:54:47;14.30;85.50
21861;DHT22;11095;48.066;8.540;2023-02-15T15:57:29;14.20;85.30
21861;DHT22;11095;48.066;8.540;2023-02-15T15:59:56;14.00;85.50
21861;DHT22;11095;48.066;8.540;2023-02-15T16:02:25;13.90;85.80
21861;DHT22;11095;48.066;8.540;2023-02-15T16:04:51;13.80;85.80
21861;DHT22;11095;48.066;8.540;2023-02-15T16:10:07;13.50;86.10
21861;DHT22;11095;48.066;8.540;2023-02-15T16:12:37;13.30;84.70
21861;DHT22;11095;48.066;8.540;2023-02-15T16:15:25;13.10;84.30
21861;DHT22;11095;48.066;8.540;2023-02-15T16:17:57;13.00;84.30
21861;DHT22;11095;48.066;8.540;2023-02-15T16:20:26;12.80;84.20
21861;DHT22;11095;48.066;8.540;2023-02-15T16:25:46;12.50;84.50
21861;DHT22;11095;48.066;8.540;2023-02-15T16:28:15;12.30;84.70
21861;DHT22;11095;48.066;8.540;2023-02-15T16:30:44;12.10;85.00
21861;DHT22;11095;48.066;8.540;2023-02-15T16:33:14;12.00;85.60
21861;DHT22;11095;48.066;8.540;2023-02-15T16:36:01;11.80;86.60
21861;DHT22;11095;48.066;8.540;2023-02-15T16:41:10;11.50;89.10
21861;DHT22;11095;48.066;8.540;2023-02-15T16:43:37;11.30;90.50
21861;DHT22;11095;48.066;8.540;2023-02-15T16:46:06;11.10;91.30
21861;DHT22;11095;48.066;8.540;2023-02-15T16:48:33;10.90;92.10
21861;DHT22;11095;48.066;8.540;2023-02-15T16:51:00;10.80;92.80
21861;DHT22;11095;48.066;8.540;2023-02-15T16:53:27;10.60;93.50
21861;DHT22;11095;48.066;8.540;2023-02-15T16:56:02;10.40;94.00
21861;DHT22;11095;48.066;8.540;2023-02-15T16:58:42;10.20;94.40
21861;DHT22;11095;48.066;8.540;2023-02-15T17:01:11;10.00;94.90
21861;DHT22;11095;48.066;8.540;2023-02-15T17:03:37;9.90;95.50
21861;DHT22;11095;48.066;8.540;2023-02-15T17:06:22;9.80;96.00
21861;DHT22;11095;48.066;8.540;2023-02-15T17:08:48;9.70;96.40
21861;DHT22;11095;48.066;8.540;2023-02-15T17:11:15;9.60;96.80
21861;DHT22;11095;48.066;8.540;2023-02-15T17:16:44;9.20;98.00
21861;DHT22;11095;48.066;8.540;2023-02-15T17:19:23;9.00;99.90
21861;DHT22;11095;48.066;8.540;2023-02-15T17:21:56;8.80;99.90
21861;DHT22;11095;48.066;8.540;2023-02-15T17:24:43;8.60;99.90
21861;DHT22;11095;48.066;8.540;2023-02-15T17:29:52;8.30;99.90
21861;DHT22;11095;48.066;8.540;2023-02-15T17:32:31;8.20;99.90
21861;DHT22;11095;48.066;8.540;2023-02-15T17:35:19;8.00;99.90
21861;DHT22;11095;48.066;8.540;2023-02-15T17:37:49;7.80;99.90
21861;DHT22;11095;48.066;8.540;2023-02-15T17:40:44;7.70;99.90
21861;DHT22;11095;48.066;8.540;2023-02-15T17:43:10;7.50;99.90
21861;DHT22;11095;48.066;8.540;2023-02-15T17:45:40;7.40;99.90
21861;DHT22;11095;48.066;8.540;2023-02-15T17:48:18;7.30;99.90
21861;DHT22;11095;48.066;8.540;2023-02-15T17:50:45;7.20;99.90
21861;DHT22;11095;48.066;8.540;2023-02-15T17:53:11;7.10;99.90
21861;DHT22;11095;48.066;8.540;2023-02-15T17:55:38;6.90;99.90
21861;DHT22;11095;48.066;8.540;2023-02-15T17:58:14;6.80;99.90
21861;DHT22;11095;48.066;8.540;2023-02-15T18:00:45;6.70;99.90
21861;DHT22;11095;48.066;8.540;2023-02-15T18:03:43;6.50;99.90
21861;DHT22;11095;48.066;8.540;2023-02-15T18:06:28;6.40;99.90
21861;DHT22;11095;48.066;8.540;2023-02-15T18:09:14;6.30;99.90
21861;DHT22;11095;48.066;8.540;2023-02-15T18:11:58;6.20;99.90
21861;DHT22;11095;48.066;8.540;2023-02-15T18:14:24;6.10;99.90
21861;DHT22;11095;48.066;8.540;2023-02-15T18:16:50;5.90;99.90
21861;DHT22;11095;48.066;8.540;2023-02-15T18:19:18;5.80;99.90
21861;DHT22;11095;48.066;8.540;2023-02-15T18:21:46;5.70;99.90
21861;DHT22;11095;48.066;8.540;2023-02-15T18:24:23;5.60;99.90
21861;DHT22;11095;48.066;8.540;2023-02-15T18:26:49;5.50;99.90
21861;DHT22;11095;48.066;8.540;2023-02-15T18:29:15;5.40;99.90
21861;DHT22;11095;48.066;8.540;2023-02-15T18:31:43;5.30;99.90
21861;DHT22;11095;48.066;8.540;2023-02-15T18:34:39;5.20;99.90
21861;DHT22;11095;48.066;8.540;2023-02-15T18:37:11;5.10;99.90
21861;DHT22;11095;48.066;8.540;2023-02-15T18:39:49;5.10;99.90
21861;DHT22;11095;48.066;8.540;2023-02-15T18:42:32;5.00;99.90
21861;DHT22;11095;48.066;8.540;2023-02-15T18:45:20;4.90;99.90
21861;DHT22;11095;48.066;8.540;2023-02-15T18:47:48;4.80;99.90
21861;DHT22;11095;48.066;8.540;2023-02-15T18:50:15;4.70;99.90
21861;DHT22;11095;48.066;8.540;2023-02-15T18:52:42;4.70;99.90
21861;DHT22;11095;48.066;8.540;2023-02-15T18:55:23;4.60;99.90
21861;DHT22;11095;48.066;8.540;2023-02-15T18:57:51;4.50;99.90
21861;DHT22;11095;48.066;8.540;2023-02-15T19:00:22;4.40;99.90
21861;DHT22;11095;48.066;8.540;2023-02-15T19:02:49;4.30;99.90
21861;DHT22;11095;48.066;8.540;2023-02-15T19:05:16;4.30;99.90
21861;DHT22;11095;48.066;8.540;2023-02-15T19:07:43;4.20;99.90
21861;DHT22;11095;48.066;8.540;2023-02-15T19:10:15;4.10;99.90
21861;DHT22;11095;48.066;8.540;2023-02-15T19:12:42;4.00;99.90
21861;DHT22;11095;48.066;8.540;2023-02-15T19:15:20;4.00;99.90
21861;DHT22;11095;48.066;8.540;2023-02-15T19:17:47;3.90;99.90
21861;DHT22;11095;48.066;8.540;2023-02-15T19:20:36;3.90;99.90
21861;DHT22;11095;48.066;8.540;2023-02-15T19:23:02;3.80;99.90
21861;DHT22;11095;48.066;8.540;2023-02-15T19:25:32;3.80;99.90
21861;DHT22;11095;48.066;8.540;2023-02-15T19:28:04;3.70;99.90
21861;DHT22;11095;48.066;8.540;2023-02-15T19:30:31;3.60;99.90
21861;DHT22;11095;48.066;8.540;2023-02-15T19:32:58;3.60;99.90
21861;DHT22;11095;48.066;8.540;2023-02-15T19:35:26;3.60;99.90